Home > Products > Valid Products > TAF

000
FTUS43 KDVN 042320
TAFCID
TAF
KCID 042320Z 0500/0524 19005KT P6SM SCT250
     FM050900 16004KT 5SM BR SKC
     FM051400 17010KT P6SM SKC=



000
FTUS43 KDVN 042320
TAFDBQ
TAF
KDBQ 042320Z 0500/0524 23005KT P6SM SCT250
     FM050900 17003KT 5SM BR SKC
     FM051400 19010KT P6SM SKC=



000
FTUS43 KDVN 042320
TAFMLI
TAF
KMLI 042320Z 0500/0524 20003KT P6SM SCT250
     FM050900 VRB02KT 6SM BR SKC
     FM051400 17008KT P6SM SKC=



000
FTUS43 KDVN 042320
TAFCID
TAF
KCID 042320Z 0500/0524 19005KT P6SM SCT250
     FM050900 16004KT 5SM BR SKC
     FM051400 17010KT P6SM SKC=



000
FTUS43 KDVN 042320
TAFBRL
TAF
KBRL 042320Z 0500/0524 20005KT P6SM SCT250
     FM050900 14003KT 4SM BR SKC
     FM051400 17008KT P6SM SKC=



000
FTUS43 KDVN 042320
TAFMLI
TAF
KMLI 042320Z 0500/0524 20003KT P6SM SCT250
     FM050900 VRB02KT 6SM BR SKC
     FM051400 17008KT P6SM SKC=



000
FTUS43 KDVN 042320
TAFDBQ
TAF
KDBQ 042320Z 0500/0524 23005KT P6SM SCT250
     FM050900 17003KT 5SM BR SKC
     FM051400 19010KT P6SM SKC=



000
FTUS43 KDVN 042320
TAFBRL
TAF
KBRL 042320Z 0500/0524 20005KT P6SM SCT250
     FM050900 14003KT 4SM BR SKC
     FM051400 17008KT P6SM SKC=



000
FTUS43 KDVN 041720
TAFDBQ
TAF
KDBQ 041720Z 0418/0518 23005KT P6SM SCT250
     FM050900 17003KT 4SM BR SKC
     FM051400 19010KT P6SM SKC=



000
FTUS43 KDVN 041720
TAFBRL
TAF
KBRL 041720Z 0418/0518 22005KT P6SM SCT250
     FM050900 14003KT 4SM BR SKC
     FM051400 17008KT P6SM SKC=



000
FTUS43 KDVN 041720
TAFCID
TAF
KCID 041720Z 0418/0518 21005KT P6SM SCT250
     FM050900 16004KT 4SM BR SKC
     FM051400 17010KT P6SM SKC=



000
FTUS43 KDVN 041720
TAFMLI
TAF
KMLI 041720Z 0418/0518 VRB03KT P6SM SCT250
     FM050900 VRB02KT 4SM BR SKC
     FM051400 17008KT P6SM SKC=



000
FTUS43 KDVN 041122
TAFMLI
TAF
KMLI 041122Z 0412/0512 VRB03KT P6SM SKC
      TEMPO 0412/0414 4SM BR
     FM041700 22006KT P6SM SCT250
     FM050900 16003KT 5SM BR SKC=



000
FTUS43 KDVN 041122
TAFCID
TAF
KCID 041122Z 0412/0512 VRB03KT P6SM SKC
      TEMPO 0412/0414 4SM BR
     FM041700 21006KT P6SM SCT250
     FM050900 15003KT 4SM BR SKC=



000
FTUS43 KDVN 041122
TAFBRL
TAF
KBRL 041122Z 0412/0512 VRB03KT P6SM SKC
      TEMPO 0412/0414 3SM BR
     FM041700 20005KT P6SM SCT250
     FM050900 14003KT 4SM BR SKC=



000
FTUS43 KDVN 041122
TAFDBQ
TAF
KDBQ 041122Z 0412/0512 VRB03KT P6SM SKC
      TEMPO 0412/0414 5SM BR
     FM041700 22006KT P6SM SCT250
     FM050900 15003KT 4SM BR SKC=



000
FTUS43 KDVN 040654 AAA
TAFBRL
TAF AMD
KBRL 040654Z 0407/0506 00000KT 4SM BR SKC
      TEMPO 0408/0412 2SM BR
     FM041400 VRB03KT P6SM SKC=



000
FTUS43 KDVN 040653 AAA
TAFMLI
TAF AMD
KMLI 040653Z 0407/0506 00000KT 5SM BR SKC
      TEMPO 0408/0412 2SM BR
     FM041400 VRB03KT P6SM SKC=



000
FTUS43 KDVN 040520
TAFMLI
TAF
KMLI 040520Z 0406/0506 VRB03KT P6SM SKC
     FM040800 00000KT 5SM BR SKC
      TEMPO 0408/0412 2SM BR
     FM041400 VRB03KT P6SM SKC=



000
FTUS43 KDVN 040520
TAFCID
TAF
KCID 040520Z 0406/0506 00000KT P6SM SKC
     FM040800 00000KT 5SM BR SKC
      TEMPO 0408/0412 2SM BR
     FM041400 VRB03KT P6SM SKC=



000
FTUS43 KDVN 040520
TAFBRL
TAF
KBRL 040520Z 0406/0506 VRB03KT P6SM SKC
     FM040800 00000KT 5SM BR SKC
      TEMPO 0408/0412 2SM BR
     FM041400 VRB03KT P6SM SKC=



000
FTUS43 KDVN 040520
TAFDBQ
TAF
KDBQ 040520Z 0406/0506 00000KT P6SM SKC
     FM040800 00000KT 5SM BR SKC
      TEMPO 0408/0412 2SM BR
     FM041400 VRB03KT P6SM SKC=



000
FTUS43 KDVN 032322
TAFDBQ
TAF
KDBQ 032322Z 0400/0424 VRB03KT P6SM SKC=



000
FTUS43 KDVN 032322
TAFCID
TAF
KCID 032322Z 0400/0424 VRB03KT P6SM SKC=



000
FTUS43 KDVN 032322
TAFBRL
TAF
KBRL 032322Z 0400/0424 VRB03KT P6SM SKC=



000
FTUS43 KDVN 032322
TAFMLI
TAF
KMLI 032322Z 0400/0424 VRB03KT P6SM SKC=



000
FTUS43 KDVN 031720
TAFCID
TAF
KCID 031720Z 0318/0418 VRB04KT P6SM FEW040
     FM040900 27003KT 5SM BR SKC
     FM041400 22006KT P6SM SKC=



000
FTUS43 KDVN 031720
TAFBRL
TAF
KBRL 031720Z 0318/0418 03005KT P6SM FEW040
     FM040900 VRB02KT 5SM BR SKC
     FM041400 22006KT P6SM SKC=



000
FTUS43 KDVN 031720
TAFDBQ
TAF
KDBQ 031720Z 0318/0418 VRB03KT P6SM FEW040
     FM041000 28003KT 5SM BR SKC
     FM041300 25006KT P6SM SKC=



000
FTUS43 KDVN 031720
TAFMLI
TAF
KMLI 031720Z 0318/0418 VRB03KT P6SM FEW040
     FM041000 28002KT 5SM BR SKC
     FM041300 25006KT P6SM SKC=



000
FTUS43 KDVN 031720
TAFCID
TAF
KCID 031720Z 0318/0418 VRB04KT P6SM FEW040
     FM040900 27003KT 5SM BR SKC
     FM041400 22006KT P6SM SKC=



000
FTUS43 KDVN 031720
TAFBRL
TAF
KBRL 031720Z 0318/0418 03005KT P6SM FEW040
     FM040900 VRB02KT 5SM BR SKC
     FM041400 22006KT P6SM SKC=



000
FTUS43 KDVN 031720
TAFDBQ
TAF
KDBQ 031720Z 0318/0418 VRB03KT P6SM FEW040
     FM041000 28003KT 5SM BR SKC
     FM041300 25006KT P6SM SKC=



000
FTUS43 KDVN 031720
TAFMLI
TAF
KMLI 031720Z 0318/0418 VRB03KT P6SM FEW040
     FM041000 28002KT 5SM BR SKC
     FM041300 25006KT P6SM SKC=



000
FTUS43 KDVN 031124
TAFBRL
TAF
KBRL 031124Z 0312/0412 03005KT P6SM FEW030 BKN250
     FM040900 31002KT 4SM BR FEW250=



000
FTUS43 KDVN 031124
TAFBRL
TAF
KBRL 031124Z 0312/0412 03005KT P6SM FEW030 BKN250
     FM040900 31002KT 4SM BR FEW250=



000
FTUS43 KDVN 031124
TAFMLI
TAF
KMLI 031124Z 0312/0412 03005KT P6SM FEW030 BKN250
     FM040900 28002KT 6SM BR SKC=



000
FTUS43 KDVN 031124
TAFCID
TAF
KCID 031124Z 0312/0412 36005KT P6SM FEW030 BKN250
     FM040900 27003KT 4SM BR SKC=



000
FTUS43 KDVN 031124
TAFDBQ
TAF
KDBQ 031124Z 0312/0412 03004KT P6SM FEW030 SCT250
     FM040900 24003KT 5SM BR SCT250=



000
FTUS43 KDVN 031124
TAFCID
TAF
KCID 031124Z 0312/0412 36005KT P6SM FEW030 BKN250
     FM040900 27003KT 4SM BR SKC=



000
FTUS43 KDVN 031124
TAFDBQ
TAF
KDBQ 031124Z 0312/0412 03004KT P6SM FEW030 SCT250
     FM040900 24003KT 5SM BR SCT250=



000
FTUS43 KDVN 030520
TAFBRL
TAF
KBRL 030520Z 0306/0406 07003KT P6SM BKN250
     FM031500 04004KT P6SM FEW030=



000
FTUS43 KDVN 030520
TAFCID
TAF
KCID 030520Z 0306/0406 06003KT P6SM BKN250
     FM031500 04005KT P6SM FEW030=



000
FTUS43 KDVN 030520
TAFDBQ
TAF
KDBQ 030520Z 0306/0406 05003KT P6SM SCT250
     FM031500 04004KT P6SM FEW030=



000
FTUS43 KDVN 030520
TAFMLI
TAF
KMLI 030520Z 0306/0406 07003KT P6SM BKN250
     FM031500 04004KT P6SM FEW030=



000
FTUS43 KDVN 030520
TAFCID
TAF
KCID 030520Z 0306/0406 06003KT P6SM BKN250
     FM031500 04005KT P6SM FEW030=



000
FTUS43 KDVN 030520
TAFBRL
TAF
KBRL 030520Z 0306/0406 07003KT P6SM BKN250
     FM031500 04004KT P6SM FEW030=



000
FTUS43 KDVN 030520
TAFDBQ
TAF
KDBQ 030520Z 0306/0406 05003KT P6SM SCT250
     FM031500 04004KT P6SM FEW030=



000
FTUS43 KDVN 030520
TAFMLI
TAF
KMLI 030520Z 0306/0406 07003KT P6SM BKN250
     FM031500 04004KT P6SM FEW030=



000
FTUS43 KDVN 022348
TAFMLI
TAF
KMLI 022348Z 0300/0324 08005KT P6SM BKN250
     FM030500 04004KT P6SM FEW030=



000
FTUS43 KDVN 022348
TAFDBQ
TAF
KDBQ 022348Z 0300/0324 06005KT P6SM SCT250
     FM030500 04004KT P6SM FEW030=



000
FTUS43 KDVN 022348
TAFCID
TAF
KCID 022348Z 0300/0324 07005KT P6SM BKN250
     FM030400 04005KT P6SM FEW030=



000
FTUS43 KDVN 022348
TAFMLI
TAF
KMLI 022348Z 0300/0324 08005KT P6SM BKN250
     FM030500 04004KT P6SM FEW030=



000
FTUS43 KDVN 022348
TAFDBQ
TAF
KDBQ 022348Z 0300/0324 06005KT P6SM SCT250
     FM030500 04004KT P6SM FEW030=



000
FTUS43 KDVN 022348
TAFBRL
TAF
KBRL 022348Z 0300/0324 08005KT P6SM BKN250
     FM030500 04004KT P6SM FEW030=



000
FTUS43 KDVN 022348
TAFCID
TAF
KCID 022348Z 0300/0324 07005KT P6SM BKN250
     FM030400 04005KT P6SM FEW030=



000
FTUS43 KDVN 022348
TAFBRL
TAF
KBRL 022348Z 0300/0324 08005KT P6SM BKN250
     FM030500 04004KT P6SM FEW030=



000
FTUS43 KDVN 021931 AAA
TAFMLI
TAF AMD
KMLI 021931Z 0220/0318 07011KT P6SM FEW025 BKN180
     FM030500 04004KT P6SM SCT025=



000
FTUS43 KDVN 021806 AAA
TAFCID
TAF AMD
KCID 021806Z 0218/0318 08011G15KT P6SM BKN180
     FM030400 04005KT P6SM SCT025=



000
FTUS43 KDVN 021806 AAA
TAFCID
TAF AMD
KCID 021806Z 0218/0318 08011G15KT P6SM BKN180
     FM030400 04005KT P6SM SCT025=



000
FTUS43 KDVN 021720
TAFDBQ
TAF
KDBQ 021720Z 0218/0318 06009KT P6SM BKN180
     FM030500 04004KT P6SM SCT025=



000
FTUS43 KDVN 021720
TAFMLI
TAF
KMLI 021720Z 0218/0318 06011KT P6SM FEW025 BKN180
     FM030500 04004KT P6SM SCT025=



000
FTUS43 KDVN 021720
TAFBRL
TAF
KBRL 021720Z 0218/0318 06011KT P6SM BKN180
     FM030500 04004KT P6SM SCT025=



000
FTUS43 KDVN 021720
TAFDBQ
TAF
KDBQ 021720Z 0218/0318 06009KT P6SM BKN180
     FM030500 04004KT P6SM SCT025=



000
FTUS43 KDVN 021720
TAFCID
TAF
KCID 021720Z 0218/0318 08009KT P6SM BKN180
     FM030500 04005KT P6SM SCT025=



000
FTUS43 KDVN 021720
TAFMLI
TAF
KMLI 021720Z 0218/0318 06011KT P6SM FEW025 BKN180
     FM030500 04004KT P6SM SCT025=



000
FTUS43 KDVN 021720
TAFBRL
TAF
KBRL 021720Z 0218/0318 06011KT P6SM BKN180
     FM030500 04004KT P6SM SCT025=



000
FTUS43 KDVN 021720
TAFCID
TAF
KCID 021720Z 0218/0318 08009KT P6SM BKN180
     FM030500 04005KT P6SM SCT025=



000
FTUS43 KDVN 021256 AAB
TAFDBQ
TAF AMD
KDBQ 021256Z 0213/0312 06011KT P6SM SCT015 BKN150
     FM030000 06005KT P6SM SKC=



000
FTUS43 KDVN 021256 AAB
TAFDBQ
TAF AMD
KDBQ 021256Z 0213/0312 06011KT P6SM SCT015 BKN150
     FM030000 06005KT P6SM SKC=



000
FTUS43 KDVN 021224 AAA
TAFDBQ
TAF AMD
KDBQ 021224Z 0212/0312 04006KT 4SM BR SCT004
     FM021330 06011KT P6SM SCT015 BKN150
     FM030000 06005KT P6SM SKC=



000
FTUS43 KDVN 021142
TAFMLI
TAF
KMLI 021142Z 0212/0312 06011KT P6SM BKN150
     FM030000 06005KT P6SM SKC=



000
FTUS43 KDVN 021142
TAFCID
TAF
KCID 021142Z 0212/0312 09010KT P6SM BKN150
     FM030000 06005KT P6SM SKC=



000
FTUS43 KDVN 021142
TAFBRL
TAF
KBRL 021142Z 0212/0312 06011KT P6SM BKN150
     FM030000 06005KT P6SM SKC=



000
FTUS43 KDVN 021142
TAFDBQ
TAF
KDBQ 021142Z 0212/0312 04004KT 1/2SM FG VV001
     FM021300 03006KT 2SM BR BKN004
     FM021400 04008KT 5SM BR SCT006
     FM021500 06011KT P6SM SCT015 BKN150
     FM030000 06005KT P6SM SKC=



000
FTUS43 KDVN 021142
TAFCID
TAF
KCID 021142Z 0212/0312 09010KT P6SM BKN150
     FM030000 06005KT P6SM SKC=



000
FTUS43 KDVN 021142
TAFBRL
TAF
KBRL 021142Z 0212/0312 06011KT P6SM BKN150
     FM030000 06005KT P6SM SKC=



000
FTUS43 KDVN 021142
TAFMLI
TAF
KMLI 021142Z 0212/0312 06011KT P6SM BKN150
     FM030000 06005KT P6SM SKC=



000
FTUS43 KDVN 021142
TAFDBQ
TAF
KDBQ 021142Z 0212/0312 04004KT 1/2SM FG VV001
     FM021300 03006KT 2SM BR BKN004
     FM021400 04008KT 5SM BR SCT006
     FM021500 06011KT P6SM SCT015 BKN150
     FM030000 06005KT P6SM SKC=



000
FTUS43 KDVN 021112 AAB
TAFDBQ
TAF AMD
KDBQ 021112Z 0211/0306 04004KT 1/4SM FG VV001
     FM021200 03006KT 1SM BR BKN004
     FM021300 04008KT 4SM BR SCT006
     FM021400 06009KT P6SM SCT015 SCT150
     FM022200 08004KT P6SM FEW120=



000
FTUS43 KDVN 021112 AAB
TAFDBQ
TAF AMD
KDBQ 021112Z 0211/0306 04004KT 1/4SM FG VV001
     FM021200 03006KT 1SM BR BKN004
     FM021300 04008KT 4SM BR SCT006
     FM021400 06009KT P6SM SCT015 SCT150
     FM022200 08004KT P6SM FEW120=



000
FTUS43 KDVN 021020 AAA
TAFCID
TAF AMD
KCID 021020Z 0210/0306 09010KT P6SM BKN120
     FM022200 06005KT P6SM FEW120=



000
FTUS43 KDVN 021020 AAA
TAFCID
TAF AMD
KCID 021020Z 0210/0306 09010KT P6SM BKN120
     FM022200 06005KT P6SM FEW120=



000
FTUS43 KDVN 020907 AAA
TAFMLI
TAF AMD
KMLI 020907Z 0209/0306 07009KT P6SM SCT100
     FM021300 08010KT P6SM SCT015
     FM021900 05008KT P6SM SCT120=



000
FTUS43 KDVN 020907 AAA
TAFMLI
TAF AMD
KMLI 020907Z 0209/0306 07009KT P6SM SCT100
     FM021300 08010KT P6SM SCT015
     FM021900 05008KT P6SM SCT120=



000
FTUS43 KDVN 020907 AAA
TAFDBQ
TAF AMD
KDBQ 020907Z 0209/0306 VRB03KT P6SM SKC
      TEMPO 0211/0214 5SM BR SCT010
     FM021400 06009KT P6SM SCT015 SCT150
     FM022200 08004KT P6SM FEW120=



000
FTUS43 KDVN 020720 AAA
TAFBRL
TAF AMD
KBRL 020720Z 0207/0306 06007KT P6SM SCT025 BKN100
     FM021200 07011KT P6SM SCT040 BKN150
     FM022300 05005KT P6SM SCT100=



000
FTUS43 KDVN 020720 AAA
TAFBRL
TAF AMD
KBRL 020720Z 0207/0306 06007KT P6SM SCT025 BKN100
     FM021200 07011KT P6SM SCT040 BKN150
     FM022300 05005KT P6SM SCT100=



000
FTUS43 KDVN 020520
TAFBRL
TAF
KBRL 020520Z 0206/0306 06007KT P6SM VCSH SCT030 BKN060
     FM020700 06005KT P6SM BKN025 BKN070
     FM020900 08007KT 5SM BR BKN020
     FM021300 05008KT P6SM SCT025 BKN100
     FM022300 07005KT P6SM SCT100=



000
FTUS43 KDVN 020520
TAFMLI
TAF
KMLI 020520Z 0206/0306 07009KT P6SM SCT025 BKN120
     FM020900 08005KT 5SM BR BKN012 BKN120
     FM021300 08007KT P6SM SCT015
     FM021900 05008KT P6SM SCT120=



000
FTUS43 KDVN 020520
TAFCID
TAF
KCID 020520Z 0206/0306 07008KT P6SM BKN120
     FM021000 09007KT 5SM BR SCT015 BKN120
     FM021300 08010KT P6SM SCT015 BKN120
     FM022200 06005KT P6SM FEW120=



000
FTUS43 KDVN 020520
TAFDBQ
TAF
KDBQ 020520Z 0206/0306 03008KT P6SM SCT025 BKN120
     FM020900 08005KT 5SM BR BKN012 BKN120
     FM021400 06009KT P6SM SCT015 SCT150
     FM022200 08004KT P6SM FEW120=



000
FTUS43 KDVN 020400 AAB
TAFBRL
TAF AMD
KBRL 020400Z 0204/0224 06007KT P6SM VCSH SCT030 BKN060
     FM020700 06005KT P6SM BKN025 BKN070
     FM020900 08007KT 5SM BR BKN020
     FM021300 05008KT P6SM SCT025 BKN100=



000
FTUS43 KDVN 020201 AAA
TAFBRL
TAF AMD
KBRL 020201Z 0202/0224 06007KT P6SM VCSH SCT030 BKN060
     FM020500 06005KT P6SM BKN025 BKN070
     FM020900 08007KT 5SM BR BKN020
     FM021300 05008KT P6SM SCT025 BKN100=



000
FTUS43 KDVN 020201 AAA
TAFBRL
TAF AMD
KBRL 020201Z 0202/0224 06007KT P6SM VCSH SCT030 BKN060
     FM020500 06005KT P6SM BKN025 BKN070
     FM020900 08007KT 5SM BR BKN020
     FM021300 05008KT P6SM SCT025 BKN100=



    US Dept of Commerce
    National Oceanic and Atmospheric Administration
    National Weather Service
    1325 East West Highway
    Silver Spring, MD 20910
    Page Author: NWS Internet Services Team
Disclaimer
Information Quality
Credits
Glossary
Privacy Policy
Freedom of Information Act (FOIA)
About Us
Career Opportunities